sensor_id;sensor_type;location;lat;lon;timestamp;temperature;humidity
44833;DHT22;30569;51.252;9.830;2022-08-03T00:00:34;14.90;99.90
44833;DHT22;30569;51.252;9.830;2022-08-03T00:03:00;14.80;99.90
44833;DHT22;30569;51.252;9.830;2022-08-03T00:05:26;14.80;99.90
44833;DHT22;30569;51.252;9.830;2022-08-03T00:07:51;14.90;99.90
44833;DHT22;30569;51.252;9.830;2022-08-03T00:10:17;14.90;99.90
44833;DHT22;30569;51.252;9.830;2022-08-03T00:12:42;14.80;99.90
44833;DHT22;30569;51.252;9.830;2022-08-03T00:15:08;14.80;99.90
44833;DHT22;30569;51.252;9.830;2022-08-03T00:17:34;14.70;99.90
44833;DHT22;30569;51.252;9.830;2022-08-03T00:19:59;14.70;99.90
44833;DHT22;30569;51.252;9.830;2022-08-03T00:22:25;14.70;99.90
44833;DHT22;30569;51.252;9.830;2022-08-03T00:24:50;14.60;99.90
44833;DHT22;30569;51.252;9.830;2022-08-03T00:27:16;14.60;99.90
44833;DHT22;30569;51.252;9.830;2022-08-03T00:29:41;14.60;99.90
44833;DHT22;30569;51.252;9.830;2022-08-03T00:32:07;14.70;99.90
44833;DHT22;30569;51.252;9.830;2022-08-03T00:34:32;14.70;99.90
44833;DHT22;30569;51.252;9.830;2022-08-03T00:36:58;14.80;99.90
44833;DHT22;30569;51.252;9.830;2022-08-03T00:39:23;14.60;99.90
44833;DHT22;30569;51.252;9.830;2022-08-03T00:41:49;14.60;99.90
44833;DHT22;30569;51.252;9.830;2022-08-03T00:44:14;14.60;99.90
44833;DHT22;30569;51.252;9.830;2022-08-03T00:46:40;14.60;99.90
44833;DHT22;30569;51.252;9.830;2022-08-03T00:49:06;14.70;99.90
44833;DHT22;30569;51.252;9.830;2022-08-03T00:51:32;14.60;99.90
44833;DHT22;30569;51.252;9.830;2022-08-03T00:53:58;14.60;99.90
44833;DHT22;30569;51.252;9.830;2022-08-03T00:56:24;14.50;99.90
44833;DHT22;30569;51.252;9.830;2022-08-03T00:58:50;14.50;99.90
44833;DHT22;30569;51.252;9.830;2022-08-03T01:01:17;14.40;99.90
44833;DHT22;30569;51.252;9.830;2022-08-03T01:03:42;14.40;99.90
44833;DHT22;30569;51.252;9.830;2022-08-03T01:08:53;14.30;99.90
44833;DHT22;30569;51.252;9.830;2022-08-03T01:11:35;14.40;99.90
44833;DHT22;30569;51.252;9.830;2022-08-03T01:14:08;14.30;99.90
44833;DHT22;30569;51.252;9.830;2022-08-03T01:16:58;14.30;99.90
44833;DHT22;30569;51.252;9.830;2022-08-03T01:19:53;14.30;99.90
44833;DHT22;30569;51.252;9.830;2022-08-03T01:22:56;14.20;99.90
44833;DHT22;30569;51.252;9.830;2022-08-03T01:25:32;14.30;99.90
44833;DHT22;30569;51.252;9.830;2022-08-03T01:30:58;14.20;99.90
44833;DHT22;30569;51.252;9.830;2022-08-03T01:33:35;14.20;99.90
44833;DHT22;30569;51.252;9.830;2022-08-03T01:36:04;14.30;99.90
44833;DHT22;30569;51.252;9.830;2022-08-03T01:38:33;14.40;99.90
44833;DHT22;30569;51.252;9.830;2022-08-03T01:41:21;14.40;99.90
44833;DHT22;30569;51.252;9.830;2022-08-03T01:43:49;14.30;99.90
44833;DHT22;30569;51.252;9.830;2022-08-03T01:46:16;14.30;99.90
44833;DHT22;30569;51.252;9.830;2022-08-03T01:48:45;14.30;99.90
44833;DHT22;30569;51.252;9.830;2022-08-03T01:51:12;14.20;99.90
44833;DHT22;30569;51.252;9.830;2022-08-03T01:53:39;14.20;99.90
44833;DHT22;30569;51.252;9.830;2022-08-03T01:56:09;14.20;99.90
44833;DHT22;30569;51.252;9.830;2022-08-03T01:58:36;14.10;99.90
44833;DHT22;30569;51.252;9.830;2022-08-03T02:01:04;14.10;99.90
44833;DHT22;30569;51.252;9.830;2022-08-03T02:03:31;14.20;99.90
44833;DHT22;30569;51.252;9.830;2022-08-03T02:05:59;14.10;99.90
44833;DHT22;30569;51.252;9.830;2022-08-03T02:08:26;14.10;99.90
44833;DHT22;30569;51.252;9.830;2022-08-03T02:10:54;14.20;99.90
44833;DHT22;30569;51.252;9.830;2022-08-03T02:13:22;14.40;99.90
44833;DHT22;30569;51.252;9.830;2022-08-03T02:15:49;14.30;99.90
44833;DHT22;30569;51.252;9.830;2022-08-03T02:18:17;14.20;99.90
44833;DHT22;30569;51.252;9.830;2022-08-03T02:20:44;14.20;99.90
44833;DHT22;30569;51.252;9.830;2022-08-03T02:23:10;14.20;99.90
44833;DHT22;30569;51.252;9.830;2022-08-03T02:25:44;14.20;99.90
44833;DHT22;30569;51.252;9.830;2022-08-03T02:28:16;14.20;99.90
44833;DHT22;30569;51.252;9.830;2022-08-03T02:30:45;14.20;99.90
44833;DHT22;30569;51.252;9.830;2022-08-03T02:33:15;14.20;99.90
44833;DHT22;30569;51.252;9.830;2022-08-03T02:35:43;14.20;99.90
44833;DHT22;30569;51.252;9.830;2022-08-03T02:38:10;14.20;99.90
44833;DHT22;30569;51.252;9.830;2022-08-03T02:40:39;14.20;99.90
44833;DHT22;30569;51.252;9.830;2022-08-03T02:43:09;14.30;99.90
44833;DHT22;30569;51.252;9.830;2022-08-03T02:45:41;14.30;99.90
44833;DHT22;30569;51.252;9.830;2022-08-03T02:48:07;14.20;99.90
44833;DHT22;30569;51.252;9.830;2022-08-03T02:50:35;14.20;99.90
44833;DHT22;30569;51.252;9.830;2022-08-03T02:53:02;14.10;99.90
44833;DHT22;30569;51.252;9.830;2022-08-03T02:55:28;14.10;99.90
44833;DHT22;30569;51.252;9.830;2022-08-03T02:57:56;14.10;99.90
44833;DHT22;30569;51.252;9.830;2022-08-03T03:00:22;14.00;99.90
44833;DHT22;30569;51.252;9.830;2022-08-03T03:02:48;14.00;99.90
44833;DHT22;30569;51.252;9.830;2022-08-03T03:05:15;14.00;99.90
44833;DHT22;30569;51.252;9.830;2022-08-03T03:07:42;13.90;99.90
44833;DHT22;30569;51.252;9.830;2022-08-03T03:10:08;13.90;99.90
44833;DHT22;30569;51.252;9.830;2022-08-03T03:12:37;13.90;99.90
44833;DHT22;30569;51.252;9.830;2022-08-03T03:15:05;13.90;99.90
44833;DHT22;30569;51.252;9.830;2022-08-03T03:17:32;13.80;99.90
44833;DHT22;30569;51.252;9.830;2022-08-03T03:19:59;13.80;99.90
44833;DHT22;30569;51.252;9.830;2022-08-03T03:22:26;13.80;99.90
44833;DHT22;30569;51.252;9.830;2022-08-03T03:24:52;13.80;99.90
44833;DHT22;30569;51.252;9.830;2022-08-03T03:27:19;13.80;99.90
44833;DHT22;30569;51.252;9.830;2022-08-03T03:29:45;13.70;99.90
44833;DHT22;30569;51.252;9.830;2022-08-03T03:32:11;13.70;99.90
44833;DHT22;30569;51.252;9.830;2022-08-03T03:34:37;13.80;99.90
44833;DHT22;30569;51.252;9.830;2022-08-03T03:37:03;13.80;99.90
44833;DHT22;30569;51.252;9.830;2022-08-03T03:39:29;13.80;99.90
44833;DHT22;30569;51.252;9.830;2022-08-03T03:41:55;13.80;99.90
44833;DHT22;30569;51.252;9.830;2022-08-03T03:44:26;13.80;99.90
44833;DHT22;30569;51.252;9.830;2022-08-03T03:46:52;14.00;99.90
44833;DHT22;30569;51.252;9.830;2022-08-03T03:49:17;13.90;99.90
44833;DHT22;30569;51.252;9.830;2022-08-03T03:51:43;13.80;99.90
44833;DHT22;30569;51.252;9.830;2022-08-03T03:54:09;13.80;99.90
44833;DHT22;30569;51.252;9.830;2022-08-03T03:56:34;13.80;99.90
44833;DHT22;30569;51.252;9.830;2022-08-03T03:59:00;13.80;99.90
44833;DHT22;30569;51.252;9.830;2022-08-03T04:01:26;13.70;99.90
44833;DHT22;30569;51.252;9.830;2022-08-03T04:03:51;13.70;99.90
44833;DHT22;30569;51.252;9.830;2022-08-03T04:06:17;13.70;99.90
44833;DHT22;30569;51.252;9.830;2022-08-03T04:09:02;13.80;99.90
44833;DHT22;30569;51.252;9.830;2022-08-03T04:11:50;13.70;99.90
44833;DHT22;30569;51.252;9.830;2022-08-03T04:14:32;13.70;99.90
44833;DHT22;30569;51.252;9.830;2022-08-03T04:17:01;13.70;99.90
44833;DHT22;30569;51.252;9.830;2022-08-03T04:19:38;13.60;99.90
44833;DHT22;30569;51.252;9.830;2022-08-03T04:22:13;13.80;99.90
44833;DHT22;30569;51.252;9.830;2022-08-03T04:24:47;13.70;99.90
44833;DHT22;30569;51.252;9.830;2022-08-03T04:27:17;13.60;99.90
44833;DHT22;30569;51.252;9.830;2022-08-03T04:29:47;13.60;99.90
44833;DHT22;30569;51.252;9.830;2022-08-03T04:32:14;13.60;99.90
44833;DHT22;30569;51.252;9.830;2022-08-03T04:34:40;13.70;99.90
44833;DHT22;30569;51.252;9.830;2022-08-03T04:37:12;13.70;99.90
44833;DHT22;30569;51.252;9.830;2022-08-03T04:39:41;13.60;99.90
44833;DHT22;30569;51.252;9.830;2022-08-03T04:42:08;13.70;99.90
44833;DHT22;30569;51.252;9.830;2022-08-03T04:44:37;13.80;99.90
44833;DHT22;30569;51.252;9.830;2022-08-03T04:47:04;13.80;99.90
44833;DHT22;30569;51.252;9.830;2022-08-03T04:49:31;13.90;99.90
44833;DHT22;30569;51.252;9.830;2022-08-03T04:51:56;13.90;99.90
44833;DHT22;30569;51.252;9.830;2022-08-03T04:54:22;14.00;99.90
44833;DHT22;30569;51.252;9.830;2022-08-03T04:56:48;14.00;99.90
44833;DHT22;30569;51.252;9.830;2022-08-03T04:59:13;14.10;99.90
44833;DHT22;30569;51.252;9.830;2022-08-03T05:01:39;14.10;99.90
44833;DHT22;30569;51.252;9.830;2022-08-03T05:04:06;14.20;99.90
44833;DHT22;30569;51.252;9.830;2022-08-03T05:06:32;14.50;99.90
44833;DHT22;30569;51.252;9.830;2022-08-03T05:08:57;14.50;99.90
44833;DHT22;30569;51.252;9.830;2022-08-03T05:11:23;14.60;99.90
44833;DHT22;30569;51.252;9.830;2022-08-03T05:13:48;14.70;99.90
44833;DHT22;30569;51.252;9.830;2022-08-03T05:16:14;14.80;99.90
44833;DHT22;30569;51.252;9.830;2022-08-03T05:18:43;15.10;99.90
44833;DHT22;30569;51.252;9.830;2022-08-03T05:21:09;15.10;99.90
44833;DHT22;30569;51.252;9.830;2022-08-03T05:23:36;15.20;99.90
44833;DHT22;30569;51.252;9.830;2022-08-03T05:26:02;15.20;99.90
44833;DHT22;30569;51.252;9.830;2022-08-03T05:28:28;15.30;99.90
44833;DHT22;30569;51.252;9.830;2022-08-03T05:30:53;15.40;99.90
44833;DHT22;30569;51.252;9.830;2022-08-03T05:33:19;15.50;99.90
44833;DHT22;30569;51.252;9.830;2022-08-03T05:35:44;15.60;99.90
44833;DHT22;30569;51.252;9.830;2022-08-03T05:38:10;15.80;99.90
44833;DHT22;30569;51.252;9.830;2022-08-03T05:40:36;15.80;99.90
44833;DHT22;30569;51.252;9.830;2022-08-03T05:43:01;16.00;99.90
44833;DHT22;30569;51.252;9.830;2022-08-03T05:45:27;16.20;99.90
44833;DHT22;30569;51.252;9.830;2022-08-03T05:47:52;16.40;99.90
44833;DHT22;30569;51.252;9.830;2022-08-03T05:50:18;16.50;99.90
44833;DHT22;30569;51.252;9.830;2022-08-03T05:52:44;16.70;99.90
44833;DHT22;30569;51.252;9.830;2022-08-03T05:55:10;16.90;99.90
44833;DHT22;30569;51.252;9.830;2022-08-03T05:57:37;17.20;99.90
44833;DHT22;30569;51.252;9.830;2022-08-03T06:00:09;17.30;99.90
44833;DHT22;30569;51.252;9.830;2022-08-03T06:02:36;17.40;99.90
44833;DHT22;30569;51.252;9.830;2022-08-03T06:05:02;17.60;99.90
44833;DHT22;30569;51.252;9.830;2022-08-03T06:07:27;17.90;99.90
44833;DHT22;30569;51.252;9.830;2022-08-03T06:09:53;17.90;99.90
44833;DHT22;30569;51.252;9.830;2022-08-03T06:12:19;18.10;99.90
44833;DHT22;30569;51.252;9.830;2022-08-03T06:14:44;18.30;99.90
44833;DHT22;30569;51.252;9.830;2022-08-03T06:17:10;18.60;99.90
44833;DHT22;30569;51.252;9.830;2022-08-03T06:19:35;18.60;99.90
44833;DHT22;30569;51.252;9.830;2022-08-03T06:22:01;18.80;99.90
44833;DHT22;30569;51.252;9.830;2022-08-03T06:24:26;19.10;99.90
44833;DHT22;30569;51.252;9.830;2022-08-03T06:26:52;19.20;99.90
44833;DHT22;30569;51.252;9.830;2022-08-03T06:29:17;19.30;99.90
44833;DHT22;30569;51.252;9.830;2022-08-03T06:31:43;19.60;99.90
44833;DHT22;30569;51.252;9.830;2022-08-03T06:34:09;19.80;99.90
44833;DHT22;30569;51.252;9.830;2022-08-03T06:36:34;20.00;99.90
44833;DHT22;30569;51.252;9.830;2022-08-03T06:39:00;20.20;99.90
44833;DHT22;30569;51.252;9.830;2022-08-03T06:41:26;20.30;99.90
44833;DHT22;30569;51.252;9.830;2022-08-03T06:43:53;20.70;99.90
44833;DHT22;30569;51.252;9.830;2022-08-03T06:46:19;20.80;99.90
44833;DHT22;30569;51.252;9.830;2022-08-03T06:48:44;21.10;99.90
44833;DHT22;30569;51.252;9.830;2022-08-03T06:51:10;21.20;99.90
44833;DHT22;30569;51.252;9.830;2022-08-03T06:53:36;21.40;99.90
44833;DHT22;30569;51.252;9.830;2022-08-03T06:56:03;21.70;99.90
44833;DHT22;30569;51.252;9.830;2022-08-03T06:58:29;21.90;99.90
44833;DHT22;30569;51.252;9.830;2022-08-03T07:00:54;22.10;98.10
44833;DHT22;30569;51.252;9.830;2022-08-03T07:03:20;22.30;98.00
44833;DHT22;30569;51.252;9.830;2022-08-03T07:05:45;22.60;97.10
44833;DHT22;30569;51.252;9.830;2022-08-03T07:08:12;22.90;95.40
44833;DHT22;30569;51.252;9.830;2022-08-03T07:10:37;23.00;96.10
44833;DHT22;30569;51.252;9.830;2022-08-03T07:15:29;23.60;94.50
44833;DHT22;30569;51.252;9.830;2022-08-03T07:17:55;24.10;91.90
44833;DHT22;30569;51.252;9.830;2022-08-03T07:20:21;24.10;92.30
44833;DHT22;30569;51.252;9.830;2022-08-03T07:22:46;24.40;91.40
44833;DHT22;30569;51.252;9.830;2022-08-03T07:25:13;24.60;90.30
44833;DHT22;30569;51.252;9.830;2022-08-03T07:27:42;24.70;90.10
44833;DHT22;30569;51.252;9.830;2022-08-03T07:30:08;24.70;91.20
44833;DHT22;30569;51.252;9.830;2022-08-03T07:32:34;25.10;90.00
44833;DHT22;30569;51.252;9.830;2022-08-03T07:35:00;25.20;90.30
44833;DHT22;30569;51.252;9.830;2022-08-03T07:37:26;25.50;89.90
44833;DHT22;30569;51.252;9.830;2022-08-03T07:39:52;25.40;90.40
44833;DHT22;30569;51.252;9.830;2022-08-03T07:42:17;25.60;89.20
44833;DHT22;30569;51.252;9.830;2022-08-03T07:44:43;25.80;85.10
44833;DHT22;30569;51.252;9.830;2022-08-03T07:47:08;26.10;83.20
44833;DHT22;30569;51.252;9.830;2022-08-03T07:49:38;26.10;83.20
44833;DHT22;30569;51.252;9.830;2022-08-03T07:52:04;26.20;84.60
44833;DHT22;30569;51.252;9.830;2022-08-03T07:57:14;26.50;76.70
44833;DHT22;30569;51.252;9.830;2022-08-03T07:59:40;26.50;77.50
44833;DHT22;30569;51.252;9.830;2022-08-03T08:02:06;26.70;80.00
44833;DHT22;30569;51.252;9.830;2022-08-03T08:04:31;26.80;78.50
44833;DHT22;30569;51.252;9.830;2022-08-03T08:06:57;26.80;79.40
44833;DHT22;30569;51.252;9.830;2022-08-03T08:09:22;27.10;75.00
44833;DHT22;30569;51.252;9.830;2022-08-03T08:11:49;27.50;72.70
44833;DHT22;30569;51.252;9.830;2022-08-03T08:14:14;27.60;73.70
44833;DHT22;30569;51.252;9.830;2022-08-03T08:16:40;27.80;74.50
44833;DHT22;30569;51.252;9.830;2022-08-03T08:19:05;27.70;73.10
44833;DHT22;30569;51.252;9.830;2022-08-03T08:21:31;27.70;73.70
44833;DHT22;30569;51.252;9.830;2022-08-03T08:23:56;27.80;73.00
44833;DHT22;30569;51.252;9.830;2022-08-03T08:26:22;28.00;74.00
44833;DHT22;30569;51.252;9.830;2022-08-03T08:28:47;28.20;71.10
44833;DHT22;30569;51.252;9.830;2022-08-03T08:31:13;28.40;70.90
44833;DHT22;30569;51.252;9.830;2022-08-03T08:33:39;28.60;74.50
44833;DHT22;30569;51.252;9.830;2022-08-03T08:36:04;28.80;69.50
44833;DHT22;30569;51.252;9.830;2022-08-03T08:38:30;29.10;67.20
44833;DHT22;30569;51.252;9.830;2022-08-03T08:40:55;29.30;68.90
44833;DHT22;30569;51.252;9.830;2022-08-03T08:43:21;29.50;68.40
44833;DHT22;30569;51.252;9.830;2022-08-03T08:45:48;29.50;67.50
44833;DHT22;30569;51.252;9.830;2022-08-03T08:48:18;30.00;68.90
44833;DHT22;30569;51.252;9.830;2022-08-03T08:50:45;29.90;67.90
44833;DHT22;30569;51.252;9.830;2022-08-03T08:53:11;30.10;64.80
44833;DHT22;30569;51.252;9.830;2022-08-03T08:55:38;30.40;61.50
44833;DHT22;30569;51.252;9.830;2022-08-03T08:58:08;30.50;65.30
44833;DHT22;30569;51.252;9.830;2022-08-03T09:00:34;30.80;61.00
44833;DHT22;30569;51.252;9.830;2022-08-03T09:03:00;31.10;62.30
44833;DHT22;30569;51.252;9.830;2022-08-03T09:05:25;31.60;62.10
44833;DHT22;30569;51.252;9.830;2022-08-03T09:07:51;32.40;56.30
44833;DHT22;30569;51.252;9.830;2022-08-03T09:10:17;32.50;57.40
44833;DHT22;30569;51.252;9.830;2022-08-03T09:12:51;32.80;57.60
44833;DHT22;30569;51.252;9.830;2022-08-03T09:15:26;33.70;55.40
44833;DHT22;30569;51.252;9.830;2022-08-03T09:17:57;34.90;53.10
44833;DHT22;30569;51.252;9.830;2022-08-03T09:20:25;35.20;50.40
44833;DHT22;30569;51.252;9.830;2022-08-03T09:25:28;35.30;50.10
44833;DHT22;30569;51.252;9.830;2022-08-03T09:27:54;34.80;51.30
44833;DHT22;30569;51.252;9.830;2022-08-03T09:30:27;34.90;51.50
44833;DHT22;30569;51.252;9.830;2022-08-03T09:33:02;35.60;54.10
44833;DHT22;30569;51.252;9.830;2022-08-03T09:35:28;36.20;49.00
44833;DHT22;30569;51.252;9.830;2022-08-03T09:38:13;37.30;48.90
44833;DHT22;30569;51.252;9.830;2022-08-03T09:43:05;38.10;48.60
44833;DHT22;30569;51.252;9.830;2022-08-03T09:45:33;38.60;48.20
44833;DHT22;30569;51.252;9.830;2022-08-03T09:48:26;39.40;45.00
44833;DHT22;30569;51.252;9.830;2022-08-03T09:50:59;39.60;46.00
44833;DHT22;30569;51.252;9.830;2022-08-03T09:53:26;40.20;41.90
44833;DHT22;30569;51.252;9.830;2022-08-03T09:55:59;40.10;42.40
44833;DHT22;30569;51.252;9.830;2022-08-03T09:58:26;39.90;44.10
44833;DHT22;30569;51.252;9.830;2022-08-03T10:01:03;39.70;42.40
44833;DHT22;30569;51.252;9.830;2022-08-03T10:03:31;39.50;44.50
44833;DHT22;30569;51.252;9.830;2022-08-03T10:05:57;39.40;44.50
44833;DHT22;30569;51.252;9.830;2022-08-03T10:08:23;39.20;42.90
44833;DHT22;30569;51.252;9.830;2022-08-03T10:10:50;39.20;42.00
44833;DHT22;30569;51.252;9.830;2022-08-03T10:13:19;38.70;43.40
44833;DHT22;30569;51.252;9.830;2022-08-03T10:15:45;38.30;45.00
44833;DHT22;30569;51.252;9.830;2022-08-03T10:18:12;37.80;47.50
44833;DHT22;30569;51.252;9.830;2022-08-03T10:20:57;37.70;46.70
44833;DHT22;30569;51.252;9.830;2022-08-03T10:23:26;37.20;46.90
44833;DHT22;30569;51.252;9.830;2022-08-03T10:25:56;36.70;48.50
44833;DHT22;30569;51.252;9.830;2022-08-03T10:28:22;35.90;50.00
44833;DHT22;30569;51.252;9.830;2022-08-03T10:30:51;35.60;47.80
44833;DHT22;30569;51.252;9.830;2022-08-03T10:33:20;35.20;49.00
44833;DHT22;30569;51.252;9.830;2022-08-03T10:35:55;34.90;49.10
44833;DHT22;30569;51.252;9.830;2022-08-03T10:38:28;34.50;47.90
44833;DHT22;30569;51.252;9.830;2022-08-03T10:40:54;34.40;48.60
44833;DHT22;30569;51.252;9.830;2022-08-03T10:43:25;34.50;49.30
44833;DHT22;30569;51.252;9.830;2022-08-03T10:45:52;34.10;51.80
44833;DHT22;30569;51.252;9.830;2022-08-03T10:48:18;34.00;50.40
44833;DHT22;30569;51.252;9.830;2022-08-03T10:50:45;34.00;48.80
44833;DHT22;30569;51.252;9.830;2022-08-03T10:53:12;33.80;48.40
44833;DHT22;30569;51.252;9.830;2022-08-03T10:55:43;33.50;49.90
44833;DHT22;30569;51.252;9.830;2022-08-03T11:01:11;33.30;52.90
44833;DHT22;30569;51.252;9.830;2022-08-03T11:06:25;33.30;52.20
44833;DHT22;30569;51.252;9.830;2022-08-03T11:11:39;33.10;53.10
44833;DHT22;30569;51.252;9.830;2022-08-03T11:17:07;32.90;50.60
44833;DHT22;30569;51.252;9.830;2022-08-03T11:19:48;32.90;51.70
44833;DHT22;30569;51.252;9.830;2022-08-03T11:22:14;32.90;50.80
44833;DHT22;30569;51.252;9.830;2022-08-03T11:30:10;32.00;53.00
44833;DHT22;30569;51.252;9.830;2022-08-03T11:40:50;32.50;51.30
44833;DHT22;30569;51.252;9.830;2022-08-03T11:46:01;32.10;55.40
44833;DHT22;30569;51.252;9.830;2022-08-03T11:48:39;31.90;58.90
44833;DHT22;30569;51.252;9.830;2022-08-03T11:51:07;32.00;57.20
44833;DHT22;30569;51.252;9.830;2022-08-03T11:53:43;32.10;59.80
44833;DHT22;30569;51.252;9.830;2022-08-03T11:56:08;32.10;55.60
44833;DHT22;30569;51.252;9.830;2022-08-03T11:58:34;32.40;53.40
44833;DHT22;30569;51.252;9.830;2022-08-03T12:01:06;32.50;51.80
44833;DHT22;30569;51.252;9.830;2022-08-03T12:03:33;32.70;52.00
44833;DHT22;30569;51.252;9.830;2022-08-03T12:05:59;32.50;55.60
44833;DHT22;30569;51.252;9.830;2022-08-03T12:10:53;32.30;53.60
44833;DHT22;30569;51.252;9.830;2022-08-03T12:13:19;32.30;57.60
44833;DHT22;30569;51.252;9.830;2022-08-03T12:15:53;32.30;55.30
44833;DHT22;30569;51.252;9.830;2022-08-03T12:18:20;32.30;57.10
44833;DHT22;30569;51.252;9.830;2022-08-03T12:20:48;32.30;57.60
44833;DHT22;30569;51.252;9.830;2022-08-03T12:23:15;32.70;54.00
44833;DHT22;30569;51.252;9.830;2022-08-03T12:25:42;32.80;56.00
44833;DHT22;30569;51.252;9.830;2022-08-03T12:28:19;33.00;50.90
44833;DHT22;30569;51.252;9.830;2022-08-03T12:30:49;32.90;53.50
44833;DHT22;30569;51.252;9.830;2022-08-03T12:36:08;32.50;54.50
44833;DHT22;30569;51.252;9.830;2022-08-03T12:38:37;32.70;52.40
44833;DHT22;30569;51.252;9.830;2022-08-03T12:41:08;32.90;51.10
44833;DHT22;30569;51.252;9.830;2022-08-03T12:43:49;32.90;52.20
44833;DHT22;30569;51.252;9.830;2022-08-03T12:46:17;32.60;51.00
44833;DHT22;30569;51.252;9.830;2022-08-03T12:49:06;32.50;51.60
44833;DHT22;30569;51.252;9.830;2022-08-03T12:54:19;32.40;53.90
44833;DHT22;30569;51.252;9.830;2022-08-03T12:59:27;32.40;51.50
44833;DHT22;30569;51.252;9.830;2022-08-03T13:01:53;32.50;55.30
44833;DHT22;30569;51.252;9.830;2022-08-03T13:04:37;32.60;52.10
44833;DHT22;30569;51.252;9.830;2022-08-03T13:07:07;32.80;52.50
44833;DHT22;30569;51.252;9.830;2022-08-03T13:09:53;32.80;53.20
44833;DHT22;30569;51.252;9.830;2022-08-03T13:12:24;32.50;55.10
44833;DHT22;30569;51.252;9.830;2022-08-03T13:14:53;32.50;55.40
44833;DHT22;30569;51.252;9.830;2022-08-03T13:17:19;32.60;51.80
44833;DHT22;30569;51.252;9.830;2022-08-03T13:19:45;32.70;51.90
44833;DHT22;30569;51.252;9.830;2022-08-03T13:22:16;32.70;52.40
44833;DHT22;30569;51.252;9.830;2022-08-03T13:24:44;32.80;51.80
44833;DHT22;30569;51.252;9.830;2022-08-03T13:27:10;33.00;52.60
44833;DHT22;30569;51.252;9.830;2022-08-03T13:29:36;33.00;53.50
44833;DHT22;30569;51.252;9.830;2022-08-03T13:32:03;33.00;51.80
44833;DHT22;30569;51.252;9.830;2022-08-03T13:34:29;32.90;52.00
44833;DHT22;30569;51.252;9.830;2022-08-03T13:36:54;32.80;56.20
44833;DHT22;30569;51.252;9.830;2022-08-03T13:39:20;33.10;50.20
44833;DHT22;30569;51.252;9.830;2022-08-03T13:41:46;33.20;51.80
44833;DHT22;30569;51.252;9.830;2022-08-03T13:44:12;33.20;49.80
44833;DHT22;30569;51.252;9.830;2022-08-03T13:46:37;33.00;49.80
44833;DHT22;30569;51.252;9.830;2022-08-03T13:49:04;33.20;50.50
44833;DHT22;30569;51.252;9.830;2022-08-03T13:51:29;33.20;53.00
44833;DHT22;30569;51.252;9.830;2022-08-03T13:53:55;33.00;53.80
44833;DHT22;30569;51.252;9.830;2022-08-03T13:56:23;32.70;56.20
44833;DHT22;30569;51.252;9.830;2022-08-03T13:58:48;32.60;54.50
44833;DHT22;30569;51.252;9.830;2022-08-03T14:01:14;32.70;55.60
44833;DHT22;30569;51.252;9.830;2022-08-03T14:03:39;32.70;54.80
44833;DHT22;30569;51.252;9.830;2022-08-03T14:06:05;32.70;53.10
44833;DHT22;30569;51.252;9.830;2022-08-03T14:08:31;32.80;52.50
44833;DHT22;30569;51.252;9.830;2022-08-03T14:10:57;32.80;53.20
44833;DHT22;30569;51.252;9.830;2022-08-03T14:13:22;32.80;55.60
44833;DHT22;30569;51.252;9.830;2022-08-03T14:15:49;32.70;53.80
44833;DHT22;30569;51.252;9.830;2022-08-03T14:18:16;32.80;50.90
44833;DHT22;30569;51.252;9.830;2022-08-03T14:20:43;32.80;51.30
44833;DHT22;30569;51.252;9.830;2022-08-03T14:23:09;32.80;52.80
44833;DHT22;30569;51.252;9.830;2022-08-03T14:25:34;32.90;50.50
44833;DHT22;30569;51.252;9.830;2022-08-03T14:28:00;32.70;51.90
44833;DHT22;30569;51.252;9.830;2022-08-03T14:30:25;32.80;52.40
44833;DHT22;30569;51.252;9.830;2022-08-03T14:32:51;32.90;51.40
44833;DHT22;30569;51.252;9.830;2022-08-03T14:35:17;33.00;51.80
44833;DHT22;30569;51.252;9.830;2022-08-03T14:37:42;33.00;49.50
44833;DHT22;30569;51.252;9.830;2022-08-03T14:40:08;32.90;50.20
44833;DHT22;30569;51.252;9.830;2022-08-03T14:42:33;33.00;52.90
44833;DHT22;30569;51.252;9.830;2022-08-03T14:44:59;33.00;51.00
44833;DHT22;30569;51.252;9.830;2022-08-03T14:47:24;32.90;50.10
44833;DHT22;30569;51.252;9.830;2022-08-03T14:49:50;33.00;50.60
44833;DHT22;30569;51.252;9.830;2022-08-03T14:52:16;32.70;52.60
44833;DHT22;30569;51.252;9.830;2022-08-03T14:54:41;32.80;51.60
44833;DHT22;30569;51.252;9.830;2022-08-03T14:57:07;32.50;50.50
44833;DHT22;30569;51.252;9.830;2022-08-03T14:59:32;32.50;51.30
44833;DHT22;30569;51.252;9.830;2022-08-03T15:01:58;32.50;51.60
44833;DHT22;30569;51.252;9.830;2022-08-03T15:04:23;32.50;53.20
44833;DHT22;30569;51.252;9.830;2022-08-03T15:06:49;32.70;50.40
44833;DHT22;30569;51.252;9.830;2022-08-03T15:09:14;32.70;49.90
44833;DHT22;30569;51.252;9.830;2022-08-03T15:11:40;32.80;51.00
44833;DHT22;30569;51.252;9.830;2022-08-03T15:14:06;32.70;54.00
44833;DHT22;30569;51.252;9.830;2022-08-03T15:16:32;32.80;52.90
44833;DHT22;30569;51.252;9.830;2022-08-03T15:18:57;32.90;50.50
44833;DHT22;30569;51.252;9.830;2022-08-03T15:21:23;33.20;48.60
44833;DHT22;30569;51.252;9.830;2022-08-03T15:23:49;33.10;50.70
44833;DHT22;30569;51.252;9.830;2022-08-03T15:26:14;33.10;50.70
44833;DHT22;30569;51.252;9.830;2022-08-03T15:28:40;32.80;50.50
44833;DHT22;30569;51.252;9.830;2022-08-03T15:31:05;32.80;49.20
44833;DHT22;30569;51.252;9.830;2022-08-03T15:33:31;32.90;49.10
44833;DHT22;30569;51.252;9.830;2022-08-03T15:35:57;32.70;50.10
44833;DHT22;30569;51.252;9.830;2022-08-03T15:38:24;32.60;50.80
44833;DHT22;30569;51.252;9.830;2022-08-03T15:40:49;32.60;51.10
44833;DHT22;30569;51.252;9.830;2022-08-03T15:43:19;32.70;49.80
44833;DHT22;30569;51.252;9.830;2022-08-03T15:45:44;32.60;51.50
44833;DHT22;30569;51.252;9.830;2022-08-03T15:48:10;32.30;53.50
44833;DHT22;30569;51.252;9.830;2022-08-03T15:50:35;32.50;51.60
44833;DHT22;30569;51.252;9.830;2022-08-03T15:53:01;32.50;51.80
44833;DHT22;30569;51.252;9.830;2022-08-03T15:55:27;32.30;51.60
44833;DHT22;30569;51.252;9.830;2022-08-03T15:57:52;32.30;51.60
44833;DHT22;30569;51.252;9.830;2022-08-03T16:00:18;32.30;51.00
44833;DHT22;30569;51.252;9.830;2022-08-03T16:02:43;32.30;50.70
44833;DHT22;30569;51.252;9.830;2022-08-03T16:05:09;32.40;49.10
44833;DHT22;30569;51.252;9.830;2022-08-03T16:07:34;32.50;49.60
44833;DHT22;30569;51.252;9.830;2022-08-03T16:10:14;32.50;49.70
44833;DHT22;30569;51.252;9.830;2022-08-03T16:12:41;32.40;53.10
44833;DHT22;30569;51.252;9.830;2022-08-03T16:15:07;32.10;54.50
44833;DHT22;30569;51.252;9.830;2022-08-03T16:17:33;31.80;54.00
44833;DHT22;30569;51.252;9.830;2022-08-03T16:19:59;31.80;54.90
44833;DHT22;30569;51.252;9.830;2022-08-03T16:22:24;32.00;49.70
44833;DHT22;30569;51.252;9.830;2022-08-03T16:24:52;31.70;50.40
44833;DHT22;30569;51.252;9.830;2022-08-03T16:27:18;31.40;54.90